EmailTwitter


Observations de surface / France / LFBP (07610)

Régions: Québec | Canada | États-Unis | Europe | France | UK | Elsewhere
Station
Affichage
Infos & localisation pour LFBP (07610) | Aide pour décoder les METARs

Observations prises le 2017-03-28 à 19H30 UTC à PONT-LONG-UZEIN/, FR (LFBP)

Température: 14.0 Celsius

Point de rosée: 6.0 Celsius

Humidité relative: 59%

Vents: Est-nord-est à 4 km/h ou 2 noeuds.

Pression au niveau moyen de la mer: 102.60 kilopascals.

Observation METAR:

LFBP 281930Z AUTO 07002KT CAVOK 14/06 Q1026 NOSIG=